Time;durP1;ratioP1;P1;durP2;ratioP2;P2;SDS_P1;SDS_P2;PMS_P1;PMS_P2;Temp;Humidity;BMP_temperature;BMP_pressure;BME280_temperature;BME280_humidity;BME280_pressure;Samples;Min_cycle;Max_cycle;Signal;HPM_P1;HPM_P2
2022/12/03 00:00:58;;;;;;;36.00;15.80;;;;;;;;;;106725;1307;22170;-74
2022/12/03 00:03:24;;;;;;;41.70;16.40;;;;;;;;;;106750;1307;22070;-73
2022/12/03 00:05:51;;;;;;;40.10;15.80;;;;;;;;;;106749;1307;22010;-73
2022/12/03 00:08:18;;;;;;;37.40;14.40;;;;;;;;;;107095;1300;22064;-73
2022/12/03 00:10:45;;;;;;;35.80;14.80;;;;;;;;;;107001;1297;22137;-74
2022/12/03 00:13:11;;;;;;;37.20;15.40;;;;;;;;;;106890;1307;21767;-73
2022/12/03 00:15:39;;;;;;;35.50;16.20;;;;;;;;;;106736;1310;22127;-74
2022/12/03 00:18:06;;;;;;;39.90;16.40;;;;;;;;;;106750;1309;22084;-73
2022/12/03 00:20:32;;;;;;;40.30;15.30;;;;;;;;;;106875;1309;22707;-73
2022/12/03 00:22:59;;;;;;;35.60;15.70;;;;;;;;;;106682;1310;22061;-73
2022/12/03 00:25:27;;;;;;;34.70;14.20;;;;;;;;;;106728;1308;22071;-73
2022/12/03 00:27:53;;;;;;;34.60;14.80;;;;;;;;;;106882;1308;22093;-73
2022/12/03 00:30:20;;;;;;;37.60;15.10;;;;;;;;;;106696;1304;22142;-73
2022/12/03 00:32:48;;;;;;;36.20;15.10;;;;;;;;;;106694;1310;22060;-73
2022/12/03 00:35:14;;;;;;;34.00;14.20;;;;;;;;;;106866;1300;22113;-74
2022/12/03 00:37:41;;;;;;;37.00;13.90;;;;;;;;;;106723;1310;22688;-73
2022/12/03 00:40:09;;;;;;;32.40;13.30;;;;;;;;;;106943;1295;22737;-73
2022/12/03 00:42:36;;;;;;;38.40;15.00;;;;;;;;;;106707;1310;22050;-74
2022/12/03 00:45:03;;;;;;;35.10;14.50;;;;;;;;;;106742;1310;22078;-73
2022/12/03 00:47:31;;;;;;;37.10;14.80;;;;;;;;;;106689;1310;22041;-73
2022/12/03 00:49:57;;;;;;;36.80;15.40;;;;;;;;;;106720;1308;22072;-73
2022/12/03 00:52:25;;;;;;;39.10;16.00;;;;;;;;;;106713;1310;22767;-74
2022/12/03 00:54:52;;;;;;;36.90;15.50;;;;;;;;;;106685;1309;22412;-74
2022/12/03 00:57:19;;;;;;;39.80;16.80;;;;;;;;;;106730;1309;22078;-73
2022/12/03 00:59:45;;;;;;;39.40;15.20;;;;;;;;;;106738;1310;22079;-73
2022/12/03 01:02:12;;;;;;;41.60;15.90;;;;;;;;;;106743;1308;21725;-73
2022/12/03 01:04:39;;;;;;;43.50;16.00;;;;;;;;;;106771;1309;22044;-74
2022/12/03 01:07:06;;;;;;;39.10;15.70;;;;;;;;;;106695;1309;22053;-73
2022/12/03 01:09:33;;;;;;;43.10;15.90;;;;;;;;;;106697;1310;22045;-73
2022/12/03 01:11:59;;;;;;;41.20;16.20;;;;;;;;;;106752;1300;22278;-74
2022/12/03 01:14:27;;;;;;;42.60;16.30;;;;;;;;;;106716;1309;22110;-74
2022/12/03 01:16:54;;;;;;;39.40;16.30;;;;;;;;;;106782;1308;22258;-73
2022/12/03 01:19:23;;;;;;;38.70;15.90;;;;;;;;;;106674;1309;22642;-73
2022/12/03 01:21:51;;;;;;;42.00;16.40;;;;;;;;;;106706;1302;22056;-73
2022/12/03 01:24:19;;;;;;;41.20;16.10;;;;;;;;;;106586;1309;22065;-73
2022/12/03 01:26:47;;;;;;;37.30;15.40;;;;;;;;;;106751;1309;21874;-73
2022/12/03 01:29:14;;;;;;;39.90;16.40;;;;;;;;;;106651;1309;22060;-73
2022/12/03 01:34:28;;;;;;;44.10;18.00;;;;;;;;;;106762;1309;22083;-74
2022/12/03 01:36:56;;;;;;;44.80;17.10;;;;;;;;;;106757;1310;22045;-73
2022/12/03 01:39:23;;;;;;;38.50;17.10;;;;;;;;;;106715;1307;22109;-73
2022/12/03 01:41:52;;;;;;;40.80;15.60;;;;;;;;;;106807;1304;21926;-73
2022/12/03 01:44:24;;;;;;;41.10;16.50;;;;;;;;;;106598;1309;22153;-74
2022/12/03 01:46:52;;;;;;;43.00;17.30;;;;;;;;;;106662;1309;22053;-74
2022/12/03 01:49:20;;;;;;;44.80;17.00;;;;;;;;;;106592;1303;22125;-74
2022/12/03 01:51:49;;;;;;;44.40;16.90;;;;;;;;;;106691;1309;22079;-74
2022/12/03 01:54:20;;;;;;;45.10;16.70;;;;;;;;;;106667;1310;22122;-74
2022/12/03 01:56:48;;;;;;;44.50;16.50;;;;;;;;;;106709;1308;22309;-73
2022/12/03 01:59:20;;;;;;;45.30;17.40;;;;;;;;;;106760;1308;22112;-73
2022/12/03 02:01:48;;;;;;;41.80;17.10;;;;;;;;;;106743;1310;22128;-73
2022/12/03 02:04:18;;;;;;;42.10;16.60;;;;;;;;;;106614;1294;22096;-74
2022/12/03 02:06:46;;;;;;;44.00;16.40;;;;;;;;;;106658;1309;21966;-74
2022/12/03 02:09:13;;;;;;;46.90;17.30;;;;;;;;;;106652;1308;22108;-73
2022/12/03 02:11:49;;;;;;;39.60;15.10;;;;;;;;;;106690;1309;22656;-74
2022/12/03 02:14:19;;;;;;;48.10;17.90;;;;;;;;;;106625;1310;21937;-75
2022/12/03 02:16:48;;;;;;;42.60;16.70;;;;;;;;;;106743;1310;22836;-73
2022/12/03 02:19:31;;;;;;;43.10;17.00;;;;;;;;;;106633;1310;22076;-73
2022/12/03 02:22:19;;;;;;;45.70;17.40;;;;;;;;;;106642;1310;22087;-73
2022/12/03 02:25:14;;;;;;;45.90;17.30;;;;;;;;;;106557;1310;22132;-73
2022/12/03 02:27:43;;;;;;;40.00;16.10;;;;;;;;;;106681;1310;22087;-73
2022/12/03 02:30:13;;;;;;;39.40;15.30;;;;;;;;;;106683;1310;22034;-73
2022/12/03 02:32:42;;;;;;;46.10;17.50;;;;;;;;;;106691;1310;22530;-74
2022/12/03 02:35:15;;;;;;;45.10;17.90;;;;;;;;;;106645;1293;22075;-74
2022/12/03 02:37:45;;;;;;;48.70;16.80;;;;;;;;;;106624;1310;22438;-74
2022/12/03 02:40:17;;;;;;;43.40;16.50;;;;;;;;;;106622;1310;22886;-74
2022/12/03 02:42:46;;;;;;;47.10;18.00;;;;;;;;;;106681;1310;22477;-73
2022/12/03 02:45:18;;;;;;;43.40;16.90;;;;;;;;;;106659;1299;22054;-73
2022/12/03 02:47:51;;;;;;;44.30;17.30;;;;;;;;;;106673;1310;22071;-74
2022/12/03 02:50:21;;;;;;;43.60;17.80;;;;;;;;;;106661;1294;22077;-74
2022/12/03 02:52:51;;;;;;;40.80;16.60;;;;;;;;;;106626;1310;22078;-74
2022/12/03 02:55:21;;;;;;;43.80;17.40;;;;;;;;;;106708;1309;22078;-73
2022/12/03 02:57:50;;;;;;;44.70;17.00;;;;;;;;;;106682;1309;21943;-73
2022/12/03 03:00:21;;;;;;;43.70;17.00;;;;;;;;;;106681;1310;22073;-74
2022/12/03 03:02:51;;;;;;;43.50;17.00;;;;;;;;;;106608;1310;22640;-73
2022/12/03 03:05:21;;;;;;;42.40;17.40;;;;;;;;;;106710;1297;22159;-73
2022/12/03 03:07:50;;;;;;;50.60;18.90;;;;;;;;;;106605;1306;22068;-74
2022/12/03 03:10:22;;;;;;;43.70;17.20;;;;;;;;;;106736;1310;22804;-74
2022/12/03 03:12:53;;;;;;;43.30;17.40;;;;;;;;;;106740;1310;22753;-73
2022/12/03 03:25:10;;;;;;;47.50;17.10;;;;;;;;;;100336;1341;544886;-79
2022/12/03 03:27:38;;;;;;;46.60;19.00;;;;;;;;;;102851;1313;22480;-77
2022/12/03 03:30:06;;;;;;;51.50;19.20;;;;;;;;;;102857;1312;22680;-77
2022/12/03 03:32:33;;;;;;;48.20;18.30;;;;;;;;;;102868;1313;22493;-81
2022/12/03 03:35:01;;;;;;;45.10;17.70;;;;;;;;;;102659;1314;22547;-80
2022/12/03 03:37:28;;;;;;;46.00;18.70;;;;;;;;;;102848;1313;22482;-79
2022/12/03 03:39:55;;;;;;;47.40;17.50;;;;;;;;;;101966;1313;1359605;-80
2022/12/03 03:42:21;;;;;;;45.30;18.70;;;;;;;;;;102908;1313;25367;-75
2022/12/03 03:44:49;;;;;;;48.90;18.40;;;;;;;;;;102984;1309;22520;-75
2022/12/03 03:47:16;;;;;;;48.70;18.40;;;;;;;;;;102997;1296;21688;-77
2022/12/03 03:49:43;;;;;;;48.60;17.70;;;;;;;;;;103033;1311;22477;-76
2022/12/03 03:52:10;;;;;;;52.00;19.00;;;;;;;;;;103187;1310;22580;-75
2022/12/03 03:54:37;;;;;;;54.50;19.20;;;;;;;;;;102995;1313;25254;-77
2022/12/03 03:57:04;;;;;;;49.40;19.10;;;;;;;;;;102954;1313;23869;-74
2022/12/03 03:59:31;;;;;;;49.90;19.50;;;;;;;;;;103064;1313;22508;-81
2022/12/03 04:01:58;;;;;;;54.50;19.90;;;;;;;;;;102921;1313;22467;-80
2022/12/03 04:04:25;;;;;;;52.60;18.70;;;;;;;;;;102887;1313;22542;-79
2022/12/03 04:06:52;;;;;;;53.40;19.80;;;;;;;;;;103105;1312;22481;-75
2022/12/03 04:09:18;;;;;;;50.70;19.20;;;;;;;;;;103244;1305;22833;-75
2022/12/03 04:14:34;;;;;;;54.70;19.20;;;;;;;;;;103353;1313;23860;-75
2022/12/03 04:17:00;;;;;;;51.30;18.70;;;;;;;;;;103196;1311;24492;-75
2022/12/03 04:19:27;;;;;;;58.50;19.50;;;;;;;;;;103138;1313;25703;-75
2022/12/03 04:24:39;;;;;;;54.90;18.60;;;;;;;;;;103093;1312;22461;-81
2022/12/03 04:29:51;;;;;;;48.00;18.30;;;;;;;;;;102913;1313;22517;-76
2022/12/03 04:37:49;;;;;;;47.90;18.00;;;;;;;;;;102935;1311;24544;-80
2022/12/03 04:43:01;;;;;;;48.60;19.40;;;;;;;;;;102976;1313;24240;-76
2022/12/03 04:45:28;;;;;;;58.90;20.00;;;;;;;;;;103476;1305;24285;-75
2022/12/03 04:47:54;;;;;;;54.10;18.40;;;;;;;;;;103045;1313;22484;-77
2022/12/03 04:50:21;;;;;;;51.10;18.20;;;;;;;;;;106883;1306;22071;-73
2022/12/03 04:52:48;;;;;;;50.10;19.40;;;;;;;;;;107006;1305;21973;-74
2022/12/03 04:55:15;;;;;;;50.30;18.70;;;;;;;;;;106918;1299;22733;-74
2022/12/03 04:57:41;;;;;;;53.20;18.90;;;;;;;;;;106916;1307;22658;-74
2022/12/03 05:00:08;;;;;;;58.90;20.10;;;;;;;;;;106967;1305;22057;-74
2022/12/03 05:02:35;;;;;;;53.00;19.50;;;;;;;;;;106942;1307;22063;-73
2022/12/03 05:05:02;;;;;;;54.00;19.40;;;;;;;;;;107054;1305;22083;-73
2022/12/03 05:07:28;;;;;;;50.50;18.60;;;;;;;;;;106901;1301;22103;-74
2022/12/03 05:09:55;;;;;;;51.40;18.00;;;;;;;;;;106901;1306;22029;-74
2022/12/03 05:12:22;;;;;;;52.80;18.90;;;;;;;;;;106925;1305;22089;-74
2022/12/03 05:14:48;;;;;;;53.60;18.80;;;;;;;;;;107154;1299;22033;-74
2022/12/03 05:17:15;;;;;;;50.20;18.30;;;;;;;;;;106899;1306;22138;-74
2022/12/03 05:22:27;;;;;;;51.30;19.60;;;;;;;;;;106933;1305;22221;-74
2022/12/03 05:24:54;;;;;;;52.80;19.00;;;;;;;;;;106956;1307;22897;-74
2022/12/03 05:27:20;;;;;;;47.50;17.00;;;;;;;;;;106890;1297;22055;-74
2022/12/03 05:29:47;;;;;;;49.30;19.20;;;;;;;;;;106885;1306;22067;-74
2022/12/03 05:32:14;;;;;;;50.90;19.30;;;;;;;;;;106812;1306;22148;-74
2022/12/03 05:34:40;;;;;;;52.30;18.60;;;;;;;;;;106973;1306;22047;-74
2022/12/03 05:37:07;;;;;;;53.70;19.90;;;;;;;;;;106930;1306;22077;-74
2022/12/03 05:39:34;;;;;;;54.70;19.80;;;;;;;;;;106941;1305;22065;-74
2022/12/03 05:44:46;;;;;;;53.00;19.20;;;;;;;;;;106982;1307;22068;-74
2022/12/03 05:47:12;;;;;;;54.10;20.00;;;;;;;;;;106883;1306;22146;-74
2022/12/03 05:49:39;;;;;;;54.90;19.60;;;;;;;;;;107243;1299;22272;-74
2022/12/03 05:52:06;;;;;;;53.60;19.50;;;;;;;;;;106786;1301;22090;-74
2022/12/03 05:54:33;;;;;;;54.00;19.10;;;;;;;;;;106948;1306;22150;-74
2022/12/03 05:56:59;;;;;;;54.90;19.80;;;;;;;;;;107151;1285;23096;-74
2022/12/03 05:59:26;;;;;;;58.20;19.60;;;;;;;;;;107038;1307;22087;-74
2022/12/03 06:01:52;;;;;;;58.20;20.00;;;;;;;;;;106863;1306;22046;-74
2022/12/03 06:04:19;;;;;;;62.60;21.70;;;;;;;;;;106943;1307;22077;-74
2022/12/03 06:06:46;;;;;;;52.80;20.00;;;;;;;;;;106871;1307;22039;-74
2022/12/03 06:09:12;;;;;;;53.70;20.30;;;;;;;;;;106899;1306;22101;-74
2022/12/03 06:11:40;;;;;;;48.20;18.20;;;;;;;;;;106939;1298;22043;-74
2022/12/03 06:14:06;;;;;;;52.30;19.40;;;;;;;;;;107159;1299;22059;-74
2022/12/03 06:16:33;;;;;;;55.80;18.50;;;;;;;;;;106877;1306;22820;-74
2022/12/03 06:19:00;;;;;;;55.50;20.30;;;;;;;;;;106916;1307;22102;-74
2022/12/03 06:21:27;;;;;;;56.60;19.50;;;;;;;;;;106932;1307;22069;-74
2022/12/03 06:23:54;;;;;;;54.30;19.10;;;;;;;;;;107142;1297;22026;-74
2022/12/03 06:26:20;;;;;;;57.00;19.60;;;;;;;;;;107288;1300;22073;-74
2022/12/03 06:28:48;;;;;;;55.00;19.90;;;;;;;;;;106852;1306;22083;-74
2022/12/03 06:31:14;;;;;;;59.20;21.30;;;;;;;;;;106866;1306;22153;-74
2022/12/03 06:33:41;;;;;;;59.40;20.10;;;;;;;;;;106876;1306;22742;-74
2022/12/03 06:36:08;;;;;;;57.10;20.30;;;;;;;;;;106940;1306;22075;-74
2022/12/03 06:38:34;;;;;;;56.80;19.60;;;;;;;;;;106860;1306;22097;-74
2022/12/03 06:41:01;;;;;;;57.20;19.70;;;;;;;;;;107146;1285;21693;-74
2022/12/03 06:43:29;;;;;;;65.30;23.70;;;;;;;;;;106750;1307;22032;-74
2022/12/03 06:45:56;;;;;;;69.90;23.90;;;;;;;;;;106748;1307;22059;-74
2022/12/03 06:48:24;;;;;;;66.30;22.50;;;;;;;;;;106895;1306;22064;-74
2022/12/03 06:50:50;;;;;;;62.20;22.60;;;;;;;;;;106890;1301;22079;-74
2022/12/03 06:53:17;;;;;;;56.10;20.20;;;;;;;;;;106782;1301;22697;-74
2022/12/03 06:55:44;;;;;;;65.10;21.00;;;;;;;;;;106939;1306;22251;-74
2022/12/03 06:58:10;;;;;;;64.10;20.00;;;;;;;;;;106939;1298;23177;-74
2022/12/03 07:00:37;;;;;;;62.20;21.30;;;;;;;;;;106744;1306;22694;-74
2022/12/03 07:03:04;;;;;;;60.00;21.10;;;;;;;;;;107153;1292;22776;-74
2022/12/03 07:05:30;;;;;;;58.60;19.80;;;;;;;;;;106880;1306;21709;-74
2022/12/03 07:07:57;;;;;;;62.90;21.50;;;;;;;;;;106760;1307;22087;-74
2022/12/03 07:10:23;;;;;;;64.20;21.30;;;;;;;;;;106887;1306;22713;-74
2022/12/03 07:12:50;;;;;;;63.70;21.30;;;;;;;;;;106948;1306;23127;-74
2022/12/03 07:15:17;;;;;;;68.30;22.10;;;;;;;;;;106884;1306;22083;-74
2022/12/03 07:17:43;;;;;;;57.80;21.00;;;;;;;;;;107066;1291;22763;-74
2022/12/03 07:20:10;;;;;;;61.40;20.90;;;;;;;;;;106910;1305;21963;-74
2022/12/03 07:22:37;;;;;;;63.30;20.40;;;;;;;;;;107086;1298;22045;-74
2022/12/03 07:25:05;;;;;;;63.30;21.30;;;;;;;;;;106836;1307;21975;-74
2022/12/03 07:27:31;;;;;;;61.60;21.30;;;;;;;;;;106723;1307;22038;-74
2022/12/03 07:29:58;;;;;;;58.50;20.00;;;;;;;;;;106923;1306;22102;-74
2022/12/03 07:32:27;;;;;;;59.00;20.20;;;;;;;;;;106906;1307;22763;-74
2022/12/03 07:34:53;;;;;;;61.30;20.60;;;;;;;;;;107118;1292;22057;-74
2022/12/03 07:37:20;;;;;;;62.30;22.50;;;;;;;;;;106873;1309;22094;-74
2022/12/03 07:39:46;;;;;;;62.60;22.80;;;;;;;;;;106811;1307;22805;-74
2022/12/03 07:42:13;;;;;;;67.80;21.90;;;;;;;;;;106833;1307;22087;-74
2022/12/03 07:44:40;;;;;;;65.50;21.60;;;;;;;;;;106898;1301;22709;-74
2022/12/03 07:47:06;;;;;;;63.90;22.00;;;;;;;;;;106832;1307;22062;-74
2022/12/03 07:49:33;;;;;;;69.70;23.50;;;;;;;;;;106893;1306;22168;-74
2022/12/03 07:52:00;;;;;;;73.00;23.30;;;;;;;;;;106889;1307;22679;-74
2022/12/03 07:54:26;;;;;;;74.20;25.80;;;;;;;;;;106894;1307;22520;-74
2022/12/03 07:56:53;;;;;;;72.50;24.00;;;;;;;;;;106989;1307;22064;-74
2022/12/03 07:59:21;;;;;;;69.70;24.60;;;;;;;;;;106856;1308;22325;-75
2022/12/03 08:01:48;;;;;;;66.10;22.40;;;;;;;;;;106721;1310;22067;-74
2022/12/03 08:04:17;;;;;;;66.90;23.10;;;;;;;;;;106840;1308;22077;-74
2022/12/03 08:06:44;;;;;;;71.40;23.80;;;;;;;;;;107141;1300;22069;-74
2022/12/03 08:09:11;;;;;;;71.80;21.50;;;;;;;;;;106914;1302;21935;-74
2022/12/03 08:11:38;;;;;;;62.70;22.00;;;;;;;;;;106861;1307;22063;-74
2022/12/03 08:14:15;;;;;;;65.30;22.10;;;;;;;;;;106987;1303;22125;-74
2022/12/03 08:16:43;;;;;;;57.00;21.10;;;;;;;;;;106769;1307;22067;-74
2022/12/03 08:19:11;;;;;;;61.80;22.30;;;;;;;;;;106856;1307;22074;-74
2022/12/03 08:21:38;;;;;;;64.90;21.60;;;;;;;;;;106744;1313;22090;-74
2022/12/03 08:24:23;;;;;;;67.70;22.40;;;;;;;;;;106758;1310;22744;-74
2022/12/03 08:26:50;;;;;;;64.40;22.30;;;;;;;;;;106754;1313;22061;-74
2022/12/03 08:29:17;;;;;;;65.30;21.50;;;;;;;;;;106859;1305;22117;-75
2022/12/03 08:31:50;;;;;;;62.20;22.20;;;;;;;;;;106751;1310;22079;-74
2022/12/03 08:34:23;;;;;;;67.50;21.40;;;;;;;;;;106692;1309;22108;-75
2022/12/03 08:36:51;;;;;;;58.10;21.00;;;;;;;;;;106785;1312;22814;-74
2022/12/03 08:39:34;;;;;;;64.40;21.70;;;;;;;;;;106760;1309;22145;-74
2022/12/03 08:44:54;;;;;;;61.90;21.50;;;;;;;;;;106816;1313;22481;-75
2022/12/03 08:47:21;;;;;;;55.00;20.70;;;;;;;;;;106757;1308;22657;-74
2022/12/03 08:49:58;;;;;;;61.20;21.80;;;;;;;;;;106753;1312;22090;-74
2022/12/03 08:52:32;;;;;;;61.40;22.30;;;;;;;;;;106775;1307;22046;-74
2022/12/03 08:55:09;;;;;;;58.40;21.70;;;;;;;;;;106792;1311;22931;-74
2022/12/03 08:57:36;;;;;;;62.10;22.00;;;;;;;;;;106752;1307;22041;-75
2022/12/03 09:00:14;;;;;;;68.30;23.90;;;;;;;;;;106864;1307;22803;-74
2022/12/03 09:02:44;;;;;;;61.40;20.50;;;;;;;;;;106687;1310;22671;-74
2022/12/03 09:05:15;;;;;;;63.30;22.40;;;;;;;;;;106770;1307;21953;-74
2022/12/03 09:07:42;;;;;;;62.50;22.50;;;;;;;;;;106770;1310;22073;-75
2022/12/03 09:10:09;;;;;;;58.20;22.50;;;;;;;;;;106784;1307;21683;-75
2022/12/03 09:12:36;;;;;;;65.40;22.40;;;;;;;;;;106767;1309;22080;-75
2022/12/03 09:15:03;;;;;;;64.20;23.10;;;;;;;;;;106893;1308;22102;-75
2022/12/03 09:17:30;;;;;;;67.60;23.70;;;;;;;;;;106767;1302;22135;-75
2022/12/03 09:19:58;;;;;;;64.10;22.90;;;;;;;;;;106871;1302;22124;-75
2022/12/03 09:22:25;;;;;;;64.30;24.00;;;;;;;;;;106725;1310;22854;-75
2022/12/03 09:24:53;;;;;;;73.60;25.20;;;;;;;;;;106655;1309;22035;-75
2022/12/03 09:27:21;;;;;;;66.40;23.10;;;;;;;;;;106737;1310;22016;-74
2022/12/03 09:29:49;;;;;;;69.50;23.90;;;;;;;;;;106912;1308;21990;-74
2022/12/03 09:32:19;;;;;;;71.20;23.40;;;;;;;;;;106717;1300;22111;-75
2022/12/03 09:34:46;;;;;;;71.90;24.10;;;;;;;;;;106774;1304;22066;-74
2022/12/03 09:37:13;;;;;;;63.20;22.90;;;;;;;;;;106835;1305;22044;-74
2022/12/03 09:39:40;;;;;;;66.80;23.70;;;;;;;;;;106766;1307;22128;-74
2022/12/03 09:42:08;;;;;;;67.80;24.00;;;;;;;;;;106720;1310;22551;-74
2022/12/03 09:44:36;;;;;;;69.80;23.70;;;;;;;;;;106753;1309;22118;-75
2022/12/03 09:47:03;;;;;;;63.60;23.30;;;;;;;;;;106840;1310;22096;-74
2022/12/03 09:49:31;;;;;;;69.60;23.90;;;;;;;;;;106666;1310;21969;-75
2022/12/03 09:52:00;;;;;;;63.50;23.50;;;;;;;;;;106920;1303;21987;-74
2022/12/03 09:54:28;;;;;;;64.00;23.00;;;;;;;;;;106731;1307;22074;-75
2022/12/03 09:56:59;;;;;;;68.40;23.60;;;;;;;;;;106711;1307;22102;-75
2022/12/03 09:59:29;;;;;;;64.90;23.10;;;;;;;;;;106733;1307;22490;-75
2022/12/03 10:01:56;;;;;;;64.30;22.50;;;;;;;;;;106722;1302;22154;-76
2022/12/03 10:04:23;;;;;;;66.20;24.80;;;;;;;;;;106681;1310;22132;-75
2022/12/03 10:06:51;;;;;;;68.40;25.40;;;;;;;;;;106959;1303;22044;-75
2022/12/03 10:09:25;;;;;;;66.10;25.20;;;;;;;;;;106730;1310;22056;-75
2022/12/03 10:11:53;;;;;;;70.90;24.50;;;;;;;;;;106742;1301;22059;-76
2022/12/03 10:14:20;;;;;;;72.80;26.30;;;;;;;;;;106739;1307;22064;-76
2022/12/03 10:16:48;;;;;;;72.40;24.70;;;;;;;;;;106786;1308;21971;-76
2022/12/03 10:19:20;;;;;;;71.90;25.20;;;;;;;;;;106741;1310;22043;-75
2022/12/03 10:21:48;;;;;;;66.60;23.70;;;;;;;;;;106714;1310;22081;-75
2022/12/03 10:24:16;;;;;;;74.90;25.70;;;;;;;;;;106761;1308;22035;-77
2022/12/03 10:26:48;;;;;;;66.50;23.00;;;;;;;;;;106750;1310;22428;-75
2022/12/03 10:29:20;;;;;;;67.60;24.20;;;;;;;;;;106642;1310;22088;-75
2022/12/03 10:31:55;;;;;;;66.90;22.90;;;;;;;;;;106699;1310;22110;-75
2022/12/03 10:34:23;;;;;;;59.00;23.20;;;;;;;;;;106658;1296;22101;-75
2022/12/03 10:37:11;;;;;;;63.20;23.30;;;;;;;;;;106663;1309;22302;-75
2022/12/03 10:39:52;;;;;;;68.80;24.90;;;;;;;;;;106728;1296;22222;-76
2022/12/03 10:42:22;;;;;;;66.40;25.10;;;;;;;;;;106702;1309;22072;-75
2022/12/03 10:45:05;;;;;;;72.40;25.80;;;;;;;;;;106717;1309;22216;-75
2022/12/03 10:47:33;;;;;;;69.30;23.60;;;;;;;;;;106677;1310;22661;-75
2022/12/03 10:50:06;;;;;;;68.80;24.90;;;;;;;;;;106756;1308;22100;-75
2022/12/03 10:52:38;;;;;;;68.60;25.00;;;;;;;;;;106695;1310;22774;-75
2022/12/03 10:55:06;;;;;;;63.90;24.10;;;;;;;;;;106766;1309;22076;-75
2022/12/03 10:57:33;;;;;;;61.70;22.80;;;;;;;;;;106731;1309;22036;-75
2022/12/03 11:00:01;;;;;;;63.90;23.80;;;;;;;;;;106766;1309;22080;-75
2022/12/03 11:02:28;;;;;;;66.90;23.10;;;;;;;;;;106844;1308;22459;-77
2022/12/03 11:04:57;;;;;;;66.70;24.30;;;;;;;;;;106689;1309;22080;-76
2022/12/03 11:07:25;;;;;;;68.00;25.30;;;;;;;;;;106670;1310;22701;-76
2022/12/03 11:09:57;;;;;;;65.50;23.60;;;;;;;;;;106695;1310;21999;-76
2022/12/03 11:12:26;;;;;;;68.60;24.60;;;;;;;;;;106942;1303;22016;-76
2022/12/03 11:14:55;;;;;;;69.90;25.50;;;;;;;;;;106701;1309;22091;-76
2022/12/03 11:17:43;;;;;;;74.30;25.20;;;;;;;;;;106628;1309;22063;-76
2022/12/03 11:20:45;;;;;;;66.20;25.30;;;;;;;;;;106939;1302;22054;-76
2022/12/03 11:23:14;;;;;;;58.10;22.70;;;;;;;;;;106767;1308;22059;-75
2022/12/03 11:25:49;;;;;;;66.50;24.10;;;;;;;;;;106633;1292;22185;-76
2022/12/03 11:28:38;;;;;;;62.80;22.80;;;;;;;;;;106577;1305;22224;-76
2022/12/03 11:31:10;;;;;;;64.80;24.70;;;;;;;;;;106636;1310;22056;-75
2022/12/03 11:33:43;;;;;;;63.40;24.20;;;;;;;;;;106572;1293;23186;-76
2022/12/03 11:36:14;;;;;;;65.70;22.80;;;;;;;;;;106608;1304;21955;-75
2022/12/03 11:38:48;;;;;;;67.60;24.90;;;;;;;;;;106666;1309;22669;-75
2022/12/03 11:41:25;;;;;;;66.20;25.70;;;;;;;;;;106628;1311;22436;-75
2022/12/03 11:44:03;;;;;;;63.30;24.10;;;;;;;;;;106709;1306;22351;-75
2022/12/03 11:46:51;;;;;;;69.00;25.40;;;;;;;;;;106798;1288;22064;-75
2022/12/03 11:49:23;;;;;;;67.00;24.20;;;;;;;;;;106699;1308;22698;-74
2022/12/03 11:51:52;;;;;;;64.80;24.70;;;;;;;;;;106700;1310;22628;-74
2022/12/03 11:54:23;;;;;;;67.50;25.00;;;;;;;;;;106531;1310;22312;-74
2022/12/03 11:56:54;;;;;;;66.20;24.90;;;;;;;;;;106639;1309;21961;-75
2022/12/03 11:59:26;;;;;;;67.70;24.90;;;;;;;;;;106651;1309;22072;-75
2022/12/03 12:01:55;;;;;;;66.80;24.60;;;;;;;;;;106548;1309;22037;-75
2022/12/03 12:04:32;;;;;;;64.00;23.50;;;;;;;;;;106754;1301;22542;-75
2022/12/03 12:07:00;;;;;;;63.90;25.20;;;;;;;;;;106598;1311;22820;-75
2022/12/03 12:09:51;;;;;;;66.10;23.20;;;;;;;;;;106694;1310;22082;-75
2022/12/03 12:12:41;;;;;;;74.50;25.80;;;;;;;;;;106745;1301;22065;-75
2022/12/03 12:15:27;;;;;;;72.90;26.30;;;;;;;;;;106732;1303;22122;-74
2022/12/03 12:25:41;;;;;;;76.10;29.90;;;;;;;;;;100614;1313;547945;-78
2022/12/03 12:28:07;;;;;;;75.40;28.80;;;;;;;;;;102525;1294;23423;-75
2022/12/03 12:30:33;;;;;;;74.70;27.50;;;;;;;;;;102537;1313;24337;-75
2022/12/03 12:33:09;;;;;;;72.50;27.30;;;;;;;;;;102867;1318;22528;-78
2022/12/03 12:35:35;;;;;;;67.40;26.40;;;;;;;;;;102237;1315;22493;-74
2022/12/03 12:38:01;;;;;;;74.80;27.80;;;;;;;;;;101245;1317;1376916;-78
2022/12/03 12:40:29;;;;;;;76.60;26.80;;;;;;;;;;102706;1316;22488;-76
2022/12/03 12:43:07;;;;;;;75.70;27.60;;;;;;;;;;102547;1317;22691;-74
2022/12/03 12:45:34;;;;;;;68.30;25.70;;;;;;;;;;102528;1315;22538;-75
2022/12/03 12:48:14;;;;;;;72.90;27.20;;;;;;;;;;102852;1316;22481;-75
2022/12/03 12:50:41;;;;;;;79.50;28.10;;;;;;;;;;102570;1316;23881;-76
2022/12/03 12:53:11;;;;;;;75.20;27.40;;;;;;;;;;102943;1313;25258;-77
2022/12/03 12:55:37;;;;;;;76.60;29.00;;;;;;;;;;103221;1286;24225;-75
2022/12/03 12:58:17;;;;;;;76.20;27.40;;;;;;;;;;103434;1307;22477;-77
2022/12/03 13:00:54;;;;;;;72.00;27.90;;;;;;;;;;103417;1307;22722;-76
2022/12/03 13:03:22;;;;;;;76.60;27.70;;;;;;;;;;103351;1295;23458;-76
2022/12/03 13:05:49;;;;;;;78.40;26.60;;;;;;;;;;103694;1293;22471;-76
2022/12/03 13:08:19;;;;;;;76.90;29.00;;;;;;;;;;103488;1284;22479;-76
2022/12/03 13:16:55;;;;;;;71.90;27.30;;;;;;;;;;100684;1328;545471;-77
2022/12/03 13:19:27;;;;;;;70.80;26.40;;;;;;;;;;102868;1313;22500;-76
2022/12/03 13:22:09;;;;;;;70.30;26.90;;;;;;;;;;102285;1313;22479;-75
2022/12/03 13:24:43;;;;;;;77.10;28.50;;;;;;;;;;102415;1320;22445;-76
2022/12/03 13:27:16;;;;;;;69.60;26.60;;;;;;;;;;102266;1306;23291;-74
2022/12/03 13:29:43;;;;;;;70.60;25.90;;;;;;;;;;100888;1317;2246882;-76
2022/12/03 13:32:13;;;;;;;72.00;25.90;;;;;;;;;;102838;1292;24330;-75
2022/12/03 13:34:40;;;;;;;75.10;26.90;;;;;;;;;;102972;1316;24316;-76
2022/12/03 13:45:13;;;;;;;64.90;24.70;;;;;;;;;;102458;1295;23857;-76
2022/12/03 13:47:40;;;;;;;77.00;27.50;;;;;;;;;;102549;1311;22532;-75
2022/12/03 13:50:19;;;;;;;78.60;26.80;;;;;;;;;;102727;1308;23070;-77
2022/12/03 13:52:47;;;;;;;77.40;27.80;;;;;;;;;;102640;1308;25261;-78
2022/12/03 14:07:09;;;;;;;87.40;29.90;;;;;;;;;;100336;1336;544943;-78
2022/12/03 14:09:36;;;;;;;82.00;29.00;;;;;;;;;;102434;1319;25286;-75
2022/12/03 14:14:49;;;;;;;78.40;30.80;;;;;;;;;;102575;1316;25557;-79
2022/12/03 14:17:15;;;;;;;79.90;30.90;;;;;;;;;;102508;1317;23314;-77
2022/12/03 14:19:42;;;;;;;84.00;31.60;;;;;;;;;;102070;1320;1384055;-76
2022/12/03 14:22:09;;;;;;;91.50;33.30;;;;;;;;;;102765;1315;22530;-74
2022/12/03 14:24:36;;;;;;;85.80;31.60;;;;;;;;;;102806;1310;22475;-75
2022/12/03 14:27:03;;;;;;;87.30;32.60;;;;;;;;;;102838;1308;22861;-76
2022/12/03 14:29:30;;;;;;;91.40;32.80;;;;;;;;;;102440;1317;22596;-79
2022/12/03 14:31:56;;;;;;;91.90;32.10;;;;;;;;;;102662;1310;22592;-75
2022/12/03 14:34:23;;;;;;;92.80;31.80;;;;;;;;;;102725;1310;22499;-75
2022/12/03 14:36:50;;;;;;;90.00;31.00;;;;;;;;;;102466;1311;24318;-76
2022/12/03 14:39:17;;;;;;;85.90;30.90;;;;;;;;;;102653;1317;24328;-77
2022/12/03 14:44:29;;;;;;;86.40;30.70;;;;;;;;;;102810;1316;22529;-79
2022/12/03 14:46:56;;;;;;;85.00;30.50;;;;;;;;;;103052;1316;22479;-76
2022/12/03 14:49:23;;;;;;;86.40;30.10;;;;;;;;;;102704;1308;22481;-77
2022/12/03 14:51:50;;;;;;;79.40;31.20;;;;;;;;;;102753;1316;25371;-75
2022/12/03 14:54:16;;;;;;;86.50;32.20;;;;;;;;;;102726;1316;24308;-74
2022/12/03 14:56:43;;;;;;;92.00;32.40;;;;;;;;;;102726;1316;22475;-76
2022/12/03 14:59:10;;;;;;;80.80;29.80;;;;;;;;;;103355;1307;22519;-79
2022/12/03 15:01:37;;;;;;;83.70;31.90;;;;;;;;;;103496;1300;24279;-78
2022/12/03 15:04:05;;;;;;;88.80;32.10;;;;;;;;;;103127;1286;22475;-77
2022/12/03 15:06:31;;;;;;;85.90;33.40;;;;;;;;;;103390;1307;23857;-75
2022/12/03 15:08:58;;;;;;;89.40;31.90;;;;;;;;;;103203;1295;22721;-81
2022/12/03 15:11:25;;;;;;;88.70;32.20;;;;;;;;;;103255;1310;24853;-76
2022/12/03 15:13:51;;;;;;;92.60;33.00;;;;;;;;;;106908;1301;22430;-76
2022/12/03 15:16:18;;;;;;;89.30;32.20;;;;;;;;;;106638;1310;22040;-75
2022/12/03 15:18:45;;;;;;;98.50;33.10;;;;;;;;;;107112;1298;22108;-75
2022/12/03 15:21:12;;;;;;;83.90;31.80;;;;;;;;;;107140;1298;22020;-76
2022/12/03 15:23:38;;;;;;;87.60;30.50;;;;;;;;;;106958;1305;22682;-75
2022/12/03 15:26:05;;;;;;;85.40;31.00;;;;;;;;;;106945;1306;22113;-76
2022/12/03 15:28:32;;;;;;;78.20;30.10;;;;;;;;;;106718;1306;22258;-75
2022/12/03 15:30:58;;;;;;;82.80;31.50;;;;;;;;;;107125;1285;22006;-75